createdAt,value
2018-11-22T12:17:44.561Z,1.10
2018-11-22T12:20:13.981Z,1.10
2018-11-22T12:22:44.003Z,1.10
2018-11-22T12:25:14.556Z,1.10
2018-11-22T12:27:44.666Z,1.10
2018-11-22T12:30:16.686Z,1.10
2018-11-22T12:32:50.585Z,1.20
2018-11-22T12:35:24.301Z,1.10
2018-11-22T12:37:58.268Z,1.20
2018-11-22T12:40:27.035Z,1.20
2018-11-22T12:42:55.631Z,1.30
2018-11-22T12:45:24.437Z,1.20
2018-11-22T12:47:53.217Z,1.20
2018-11-22T12:50:21.766Z,1.20
2018-11-22T12:52:50.317Z,1.20
2018-11-22T12:55:18.876Z,1.30
2018-11-22T12:57:47.457Z,1.30
2018-11-22T13:00:17.228Z,1.30
2018-11-22T13:02:45.973Z,1.30
2018-11-22T13:05:16.106Z,1.20
2018-11-22T13:07:44.776Z,1.20
2018-11-22T13:10:14.680Z,1.20
2018-11-22T13:12:44.758Z,1.10
2018-11-22T13:15:14.969Z,1.10
2018-11-22T13:17:43.602Z,1.10
2018-11-22T13:20:13.556Z,1.10
2018-11-22T13:22:42.130Z,1.10
2018-11-22T13:25:13.095Z,1.10
2018-11-22T13:27:41.846Z,1.10
2018-11-22T13:30:14.841Z,1.10
2018-11-22T13:32:44.797Z,1.10
2018-11-22T13:35:14.024Z,1.10
2018-11-22T13:37:43.898Z,1.20
2018-11-22T13:40:12.815Z,1.10
2018-11-22T13:42:42.418Z,1.20
2018-11-22T13:45:13.472Z,1.20
2018-11-22T13:47:43.210Z,1.30
2018-11-22T13:50:15.216Z,1.30
2018-11-22T13:52:44.539Z,1.20
2018-11-22T13:55:13.396Z,1.20
2018-11-22T13:57:41.958Z,1.20
2018-11-22T14:00:18.940Z,1.20
2018-11-22T14:02:48.998Z,1.20
2018-11-22T14:05:17.612Z,1.20
2018-11-22T14:07:46.190Z,1.10
2018-11-22T14:10:16.219Z,1.10
2018-11-22T14:12:44.776Z,1.00
2018-11-22T14:15:15.986Z,1.00
2018-11-22T14:17:45.036Z,0.90
2018-11-22T14:20:14.998Z,0.90
2018-11-22T14:22:43.607Z,0.90
2018-11-22T14:25:13.375Z,0.90
2018-11-22T14:27:42.777Z,0.90
2018-11-22T14:30:13.533Z,0.90
2018-11-22T14:32:42.842Z,0.90
2018-11-22T14:35:12.511Z,0.90
2018-11-22T14:37:41.605Z,0.90
2018-11-22T14:40:13.781Z,0.90
2018-11-22T14:42:42.701Z,0.80
2018-11-22T14:45:12.978Z,0.80
2018-11-22T14:47:42.483Z,0.80
2018-11-22T14:50:27.458Z,0.80
2018-11-22T14:53:05.219Z,0.80
2018-11-22T14:55:33.914Z,0.80
2018-11-22T14:58:02.576Z,0.80
2018-11-22T15:00:31.181Z,0.80
2018-11-22T15:02:59.743Z,0.70
2018-11-22T15:05:28.288Z,0.70
2018-11-22T15:07:56.896Z,0.70
2018-11-22T15:10:25.466Z,0.70
2018-11-22T15:12:54.109Z,0.70
2018-11-22T15:15:23.869Z,0.70
2018-11-22T15:17:52.427Z,0.80
2018-11-22T15:20:21.922Z,0.80
2018-11-22T15:22:51.496Z,0.80
2018-11-22T15:25:21.586Z,0.80
2018-11-22T15:27:50.334Z,0.80
2018-11-22T15:30:22.195Z,0.70
2018-11-22T15:32:50.986Z,0.70
2018-11-22T15:35:21.111Z,0.70
2018-11-22T15:37:50.085Z,0.70
2018-11-22T15:40:21.150Z,0.80
2018-11-22T15:42:51.276Z,0.80
2018-11-22T15:45:21.312Z,0.80
2018-11-22T15:47:50.065Z,0.80
2018-11-22T15:50:20.799Z,0.80
2018-11-22T15:52:49.414Z,0.90
2018-11-22T15:55:21.140Z,0.90
2018-11-22T15:57:48.366Z,0.90
2018-11-22T16:00:20.642Z,0.90
2018-11-22T16:02:49.790Z,0.90
2018-11-22T16:05:18.913Z,0.80
2018-11-22T16:07:47.571Z,0.90
2018-11-22T16:10:18.544Z,0.90
2018-11-22T16:12:48.143Z,0.90
2018-11-22T16:15:21.122Z,0.90
2018-11-22T16:17:49.736Z,1.00
2018-11-22T16:20:18.334Z,0.90
2018-11-22T16:22:46.914Z,0.90
2018-11-22T16:25:15.595Z,1.00
2018-11-22T16:27:44.167Z,0.90
2018-11-22T16:30:29.364Z,0.90
2018-11-22T16:32:57.984Z,0.90
2018-11-22T16:35:33.172Z,0.80
2018-11-22T16:37:57.554Z,0.80
2018-11-22T16:40:27.887Z,0.80
2018-11-22T16:42:58.151Z,0.80
2018-11-22T16:45:28.404Z,0.80
2018-11-22T16:47:57.966Z,0.80
2018-11-22T16:50:27.852Z,0.80
2018-11-22T16:52:56.627Z,0.70
2018-11-22T16:55:26.070Z,0.70
2018-11-22T16:57:56.221Z,0.70
2018-11-22T17:00:26.738Z,0.70
2018-11-22T17:02:57.097Z,0.60
2018-11-22T17:05:25.862Z,0.60
2018-11-22T17:07:54.512Z,0.60
2018-11-22T17:10:24.531Z,0.60
2018-11-22T17:12:54.581Z,0.70
2018-11-22T17:15:25.191Z,0.70
2018-11-22T17:17:54.489Z,0.70
2018-11-22T17:20:23.922Z,0.70
2018-11-22T17:22:54.274Z,0.70
2018-11-22T17:25:25.097Z,0.70
2018-11-22T17:27:55.289Z,0.70
2018-11-22T17:30:26.549Z,0.70
2018-11-22T17:32:55.147Z,0.70
2018-11-22T17:35:24.892Z,0.70
2018-11-22T17:37:54.983Z,0.80
2018-11-22T17:40:28.085Z,0.80
2018-11-22T17:42:57.037Z,0.80
2018-11-22T17:45:30.312Z,0.80
2018-11-22T17:47:59.064Z,0.70
2018-11-22T17:50:30.473Z,0.70
2018-11-22T17:52:59.324Z,0.70
2018-11-22T17:55:29.271Z,0.70
2018-11-22T17:57:57.926Z,0.80
2018-11-22T18:00:32.135Z,0.90
2018-11-22T18:03:01.913Z,0.80
2018-11-22T18:05:30.640Z,0.80
2018-11-22T18:07:59.255Z,0.80
2018-11-22T18:10:29.417Z,0.80
2018-11-22T18:12:58.302Z,0.80
2018-11-22T18:15:27.863Z,0.80
2018-11-22T18:17:57.068Z,0.90
2018-11-22T18:20:27.383Z,0.90
2018-11-22T18:22:57.188Z,0.90
2018-11-22T18:25:27.418Z,0.90
2018-11-22T18:27:56.031Z,0.90
2018-11-22T18:30:26.842Z,1.00
2018-11-22T18:32:58.676Z,0.90
2018-11-22T18:35:27.281Z,0.90
2018-11-22T18:37:55.887Z,0.90
2018-11-22T18:40:25.781Z,1.00
2018-11-22T18:42:56.303Z,1.00
2018-11-22T18:45:46.061Z,0.90
2018-11-22T18:48:15.997Z,0.90
2018-11-22T18:50:45.097Z,0.90
2018-11-22T18:53:13.724Z,0.90
2018-11-22T18:55:42.369Z,0.90
2018-11-22T18:58:10.966Z,0.90
2018-11-22T19:00:41.420Z,0.90
2018-11-22T19:03:13.840Z,0.90
2018-11-22T19:05:42.408Z,0.80
2018-11-22T19:08:10.982Z,0.80
2018-11-22T19:10:41.008Z,0.80
2018-11-22T19:13:10.571Z,0.80
2018-11-22T19:15:41.608Z,0.80
2018-11-22T19:18:10.916Z,0.80
2018-11-22T19:20:41.045Z,0.80
2018-11-22T19:23:10.272Z,0.80
2018-11-22T19:25:39.003Z,0.80
2018-11-22T19:28:08.326Z,0.80
2018-11-22T19:30:41.520Z,0.80
2018-11-22T19:33:11.776Z,0.80
2018-11-22T19:35:42.216Z,0.80
2018-11-22T19:38:10.817Z,0.80
2018-11-22T19:40:40.205Z,0.80
2018-11-22T19:43:09.833Z,0.80
2018-11-22T19:45:40.158Z,0.80
2018-11-22T19:48:09.233Z,0.80
2018-11-22T19:50:38.287Z,0.80
2018-11-22T19:53:08.568Z,0.80
2018-11-22T19:55:38.348Z,0.80
2018-11-22T19:58:08.492Z,0.80
2018-11-22T20:00:37.202Z,0.80
2018-11-22T20:03:06.923Z,0.80
2018-11-22T20:05:42.173Z,0.80
2018-11-22T20:08:12.501Z,0.80
2018-11-22T20:10:42.405Z,0.80
2018-11-22T20:13:11.057Z,0.80
2018-11-22T20:15:39.691Z,0.80
2018-11-22T20:18:09.487Z,0.80
2018-11-22T20:20:38.191Z,0.80
2018-11-22T20:23:06.893Z,0.80
2018-11-22T20:25:35.551Z,0.80
2018-11-22T20:28:04.451Z,0.80
2018-11-22T20:30:34.682Z,0.80
2018-11-22T20:33:03.405Z,0.80
2018-11-22T20:35:32.459Z,0.90
2018-11-22T20:38:01.122Z,0.80
2018-11-22T20:40:30.077Z,0.80
2018-11-22T20:42:59.120Z,0.80
2018-11-22T20:45:28.433Z,0.80
2018-11-22T20:47:58.774Z,0.90
2018-11-22T20:50:28.159Z,0.90
2018-11-22T20:52:56.721Z,0.90
2018-11-22T20:55:27.796Z,0.90
2018-11-22T20:57:57.863Z,1.00
2018-11-22T21:00:27.976Z,1.10
2018-11-22T21:02:56.675Z,1.10
2018-11-22T21:05:26.280Z,1.10
2018-11-22T21:07:54.989Z,1.10
2018-11-22T21:10:25.146Z,1.10
2018-11-22T21:12:53.762Z,1.10
2018-11-22T21:15:25.109Z,1.00
2018-11-22T21:17:55.713Z,1.00
2018-11-22T21:20:26.047Z,1.00
2018-11-22T21:22:54.770Z,1.00
2018-11-22T21:25:23.407Z,1.10
2018-11-22T21:27:52.202Z,1.10
2018-11-22T21:30:24.623Z,1.10
2018-11-22T21:32:53.633Z,1.00
2018-11-22T21:35:22.484Z,1.00
2018-11-22T21:37:52.081Z,0.90
2018-11-22T21:40:21.389Z,1.00
2018-11-22T21:42:49.993Z,0.90
2018-11-22T21:45:19.937Z,0.90
2018-11-22T21:47:48.557Z,0.90
2018-11-22T21:50:18.438Z,1.00
2018-11-22T21:52:47.027Z,0.90
2018-11-22T21:55:18.067Z,0.90
2018-11-22T21:57:47.287Z,0.90
2018-11-22T22:00:20.522Z,1.00
2018-11-22T22:02:52.821Z,1.00
2018-11-22T22:05:19.589Z,1.00
2018-11-22T22:07:48.313Z,0.90
2018-11-22T22:10:16.951Z,0.90
2018-11-22T22:12:45.651Z,1.00
2018-11-22T22:15:15.921Z,1.00
2018-11-22T22:17:45.287Z,1.00
2018-11-22T22:20:19.364Z,1.00
2018-11-22T22:22:47.988Z,1.00
2018-11-22T22:25:17.873Z,1.00
2018-11-22T22:27:46.962Z,1.00
2018-11-22T22:30:16.974Z,1.00
2018-11-22T22:32:46.424Z,1.00
2018-11-22T22:35:15.097Z,1.00
2018-11-22T22:37:43.753Z,1.00
2018-11-22T22:40:14.537Z,1.00
2018-11-22T22:42:44.377Z,1.00
2018-11-22T22:45:15.015Z,1.00
2018-11-22T22:47:44.410Z,0.90
2018-11-22T22:50:15.212Z,0.90
2018-11-22T22:52:44.256Z,0.90
2018-11-22T22:55:13.439Z,1.00
2018-11-22T22:57:42.418Z,0.90
2018-11-22T23:00:20.132Z,0.90
2018-11-22T23:02:50.043Z,0.90
2018-11-22T23:05:18.711Z,0.90
2018-11-22T23:07:47.470Z,1.00
2018-11-22T23:10:16.595Z,1.10
2018-11-22T23:12:45.242Z,1.10
2018-11-22T23:15:15.342Z,1.00
2018-11-22T23:17:44.153Z,1.00
2018-11-22T23:20:18.164Z,1.00
2018-11-22T23:22:47.231Z,1.00
2018-11-22T23:25:17.475Z,1.10
2018-11-22T23:27:46.150Z,1.10
2018-11-22T23:30:17.812Z,1.10
2018-11-22T23:32:50.712Z,1.00
2018-11-22T23:35:19.552Z,1.10
2018-11-22T23:37:48.314Z,1.10
2018-11-22T23:40:19.241Z,1.10
2018-11-22T23:42:47.924Z,1.10
2018-11-22T23:45:17.829Z,1.10
2018-11-22T23:47:46.916Z,1.10
2018-11-22T23:50:17.746Z,1.10
2018-11-22T23:52:47.584Z,1.10
2018-11-22T23:55:16.272Z,1.00
2018-11-22T23:57:45.054Z,1.00
